Broward Mall, Florida
Current Conditions -  °F | °C
As of 3:53 AM on Monday 20 Oct 2014 (Local Time) from KFLL Reporting Station
Few Clouds Few Clouds  
Wind Chill: 78°   Ceiling: Unl
Heat Index: 80°   Visibility: 10mi
Dew Point: 63°   Wind: 6mph
Humidity: 60%   Direction: 120°ESE
Pressure: 29.98"   Gusts: NA
Location:  26.1172°N, 80.2562°W
Report Text: KFLL 200753Z 12005KT 10SM FEW030 26/17 A2998 RMK AO2 SLP151 T02560172 $
Loading
Personal Weather Stations






























Interactive Weather Map
Tropical Storm Tracking
New forecast layout! Learn more

10-Day Weather Forecast

Advertisements
Track Severe Weather on mobile